Garth Foss — WCE4732 — position and weather

sailwx.info

Track history (hours):
 
Tides and Currents Weather Stations Pressure Air Temp Water Temp Dewpoint Dewpoint Depression Visibility Wind Speed Wind Dir Waves Ship Positions

Garth Foss

Owner: FOSS MARITIME CO, SEATTLE, WA. More information available from US FCC via Universal Licensing System and Coast Guard Vessel Documentation Center.

Last reported at 2018-Jul-18 14:31 UTC. Time now 2018-Jul-18 14:38 UTC.
Position N 48°26' W 122°47'.

Length 47 m; draft 6.2 m.

Type: Towing. MMSI: 366767140.

Date/timePositionNaut miles runAvg speedWind from/ knotsBaromVisibWave heightAir tempDewpointWater temp
2018-Jul-18 14:31N 48°26' W 122°47'10 9.8
2018-Jul-18 13:27N 48°19' W 122°59'10 0.7
2018-Jul-17 22:58N 48°14' W 123°12'8 9.8
2018-Jul-17 22:06N 48°19' W 123°02'110.1
2018-Jul-17 21:59N 48°20' W 123°01'510.9
2018-Jul-17 21:30N 48°22' W 122°54'611.3
2018-Jul-17 20:59N 48°26' W 122°47'612.4
2018-Jul-17 20:31N 48°31' W 122°42'612.4
2018-Jul-17 20:00N 48°36' W 122°38'510.0
2018-Jul-17 19:30N 48°41' W 122°34'5 9.7
2018-Jul-17 19:00N 48°45' W 122°30'0 0.2
2018-Jul-17 18:30N 48°45' W 122°30'1 2.8
2018-Jul-17 17:58N 48°43' W 122°31'0 0.0
2018-Jul-17 17:19N 48°43' W 122°31'0 0.0
2018-Jul-17 16:55N 48°43' W 122°31'0 0.1
2018-Jul-17 14:53N 48°43' W 122°31'1 0.0
2018-Jul-16 07:01N 48°45' W 122°30'0 3.2
2018-Jul-16 07:00N 48°45' W 122°30'5 9.7
2018-Jul-16 06:30N 48°40' W 122°33'5 9.8
2018-Jul-16 06:00N 48°35' W 122°34'4 8.9
2018-Jul-16 05:30N 48°31' W 122°35'0 1.0
2018-Jul-16 05:00N 48°31' W 122°35'2 3.2
2018-Jul-16 04:30N 48°31' W 122°37'1 1.4
2018-Jul-16 03:50N 48°31' W 122°36'0 0.0
2018-Jul-16 03:26N 48°31' W 122°36'0 0.0
2018-Jul-16 02:56N 48°31' W 122°36'0 0.0
2018-Jul-16 02:26N 48°31' W 122°36'0 0.0
2018-Jul-16 01:56N 48°31' W 122°36'0 0.0
2018-Jul-16 01:26N 48°31' W 122°36'0 0.0
2018-Jul-16 00:56N 48°31' W 122°36'0 0.0
2018-Jul-16 00:26N 48°31' W 122°36'0 0.0
2018-Jul-15 23:56N 48°31' W 122°36'0 0.1
2018-Jul-15 23:26N 48°31' W 122°36'0 0.1
2018-Jul-15 22:56N 48°31' W 122°36'0 1.1
2018-Jul-15 22:30N 48°31' W 122°36'1 2.1
2018-Jul-15 21:59N 48°31' W 122°34'1 1.9
2018-Jul-15 21:30N 48°31' W 122°35'3 5.3
2018-Jul-15 21:00N 48°31' W 122°39'3 6.3
2018-Jul-15 20:30N 48°30' W 122°43'4 7.4
2018-Jul-15 20:00N 48°26' W 122°45'4 9.0
2018-Jul-15 19:30N 48°23' W 122°50'610.8
2018-Jul-15 19:00N 48°20' W 122°57'1 0.4
2018-Jul-15 17:15N 48°21' W 122°57'2 6.5
2018-Jul-15 17:00N 48°22' W 122°55'3 7.0
2018-Jul-15 16:30N 48°24' W 122°51'4 8.0
2018-Jul-15 16:00N 48°26' W 122°46'4 7.7
2018-Jul-15 15:28N 48°30' W 122°45'3 7.4
2018-Jul-15 15:00N 48°34' W 122°45'4 7.5
2018-Jul-15 14:30N 48°37' W 122°45'3 6.9
2018-Jul-15 14:00N 48°41' W 122°44'3 6.6
2018-Jul-15 13:30N 48°44' W 122°44'0 0.0
2018-Jul-15 10:06N 48°44' W 122°44'1 9.5
2018-Jul-15 10:00N 48°43' W 122°44'5 9.7
2018-Jul-15 09:30N 48°39' W 122°39'4 8.1
2018-Jul-15 09:01N 48°40' W 122°33'5 6.9
2018-Jul-15 08:17N 48°45' W 122°30'0 0.0
2018-Jul-15 07:59N 48°45' W 122°30'0 0.0
2018-Jul-15 07:29N 48°45' W 122°30'0 0.0
2018-Jul-15 06:59N 48°45' W 122°30'0 0.0
2018-Jul-15 06:17N 48°45' W 122°30'0 0.0
2018-Jul-15 05:59N 48°45' W 122°30'0 0.0
2018-Jul-15 05:29N 48°45' W 122°30'0 0.0
2018-Jul-15 03:59N 48°45' W 122°30'0 0.0
2018-Jul-15 01:41N 48°45' W 122°30'0 0.0
2018-Jul-14 21:05N 48°45' W 122°30'0 0.0
2018-Jul-14 20:47N 48°45' W 122°30'0 0.0
2018-Jul-14 20:17N 48°45' W 122°30'0 0.0
2018-Jul-14 19:59N 48°45' W 122°30'0 0.0
2018-Jul-14 19:29N 48°45' W 122°30'0 0.0
2018-Jul-14 18:59N 48°45' W 122°30'0 0.0
2018-Jul-14 18:29N 48°45' W 122°30'0 0.0
2018-Jul-14 17:59N 48°45' W 122°30'0 0.0
2018-Jul-14 17:29N 48°45' W 122°30'0 0.0
2018-Jul-14 16:59N 48°45' W 122°30'0 0.0
2018-Jul-14 16:29N 48°45' W 122°30'0 0.0
2018-Jul-14 15:59N 48°45' W 122°30'0 0.0
2018-Jul-14 15:29N 48°45' W 122°30'0 0.0
2018-Jul-14 14:35N 48°45' W 122°30'0 0.0
2018-Jul-14 13:05N 48°45' W 122°30'0 0.0
2018-Jul-14 12:41N 48°45' W 122°30'0 0.0
2018-Jul-14 12:17N 48°45' W 122°30'0 0.0
2018-Jul-14 11:47N 48°45' W 122°30'0 0.0
2018-Jul-14 11:17N 48°45' W 122°30'0 0.0
2018-Jul-14 10:47N 48°45' W 122°30'0 0.0
2018-Jul-14 10:29N 48°45' W 122°30'0 0.0
2018-Jul-14 09:47N 48°45' W 122°30'0 0.0
2018-Jul-14 09:29N 48°45' W 122°30'0 0.0
2018-Jul-14 08:59N 48°45' W 122°30'0 0.0
2018-Jul-14 08:29N 48°45' W 122°30'0 0.0
2018-Jul-14 07:59N 48°45' W 122°30'0 0.0
2018-Jul-14 06:29N 48°45' W 122°30'0 0.0
2018-Jul-14 05:41N 48°45' W 122°30'1 2.2
2018-Jul-14 05:24N 48°44' W 122°30'410.0
2018-Jul-14 05:00N 48°40' W 122°33'4 8.8
2018-Jul-14 04:30N 48°36' W 122°34'5 9.4
2018-Jul-14 04:00N 48°32' W 122°34'1 2.2
2018-Jul-14 03:30N 48°31' W 122°35'0 0.2
2018-Jul-14 03:00N 48°31' W 122°35'1 1.9
2018-Jul-14 02:30N 48°31' W 122°34'0 0.9
2018-Jul-14 02:00N 48°31' W 122°35'1 1.2
2018-Jul-14 01:29N 48°31' W 122°36'0 0.0
2018-Jul-14 00:59N 48°31' W 122°36'0 0.0
2018-Jul-14 00:29N 48°31' W 122°36'0 0.0
2018-Jul-13 23:59N 48°31' W 122°36'0 0.0
2018-Jul-13 23:23N 48°31' W 122°36'0 0.0
2018-Jul-13 22:59N 48°31' W 122°36'2 4.5
2018-Jul-13 22:30N 48°31' W 122°39'2 4.0
2018-Jul-13 22:00N 48°32' W 122°36'2 3.2
2018-Jul-13 21:30N 48°31' W 122°34'0 0.1
2018-Jul-13 21:00N 48°31' W 122°34'1 2.2
2018-Jul-13 20:30N 48°31' W 122°36'0 0.1
2018-Jul-13 19:57N 48°31' W 122°36'0 0.0
2018-Jul-13 19:27N 48°31' W 122°36'0 0.0
2018-Jul-13 18:57N 48°31' W 122°36'0 0.0
2018-Jul-13 18:27N 48°31' W 122°36'0 0.0
2018-Jul-13 17:57N 48°31' W 122°36'0 0.0
2018-Jul-13 17:27N 48°31' W 122°36'0 0.0
2018-Jul-13 16:57N 48°31' W 122°36'0 0.0
2018-Jul-13 16:27N 48°31' W 122°36'0 0.0
2018-Jul-13 15:57N 48°31' W 122°36'0 0.0
2018-Jul-13 15:27N 48°31' W 122°36'0 0.0
2018-Jul-13 14:57N 48°31' W 122°36'0 0.0
2018-Jul-13 14:27N 48°31' W 122°36'0 0.0
2018-Jul-13 13:27N 48°31' W 122°36'0 0.0
2018-Jul-13 12:57N 48°31' W 122°36'0 0.1
2018-Jul-13 12:27N 48°31' W 122°36'0 0.1
2018-Jul-13 11:57N 48°31' W 122°36'0 0.0
2018-Jul-13 11:27N 48°31' W 122°36'0 0.0
2018-Jul-13 10:51N 48°31' W 122°36'0 0.0
2018-Jul-13 10:27N 48°31' W 122°36'0 0.0
2018-Jul-13 09:57N 48°31' W 122°36'0 0.1
2018-Jul-13 09:27N 48°31' W 122°36'0 0.1
2018-Jul-13 08:57N 48°31' W 122°36'0 0.0
2018-Jul-13 08:27N 48°31' W 122°36'0 0.0
2018-Jul-13 07:57N 48°31' W 122°36'0 0.0
2018-Jul-13 07:27N 48°31' W 122°36'0 0.0
2018-Jul-13 06:57N 48°31' W 122°36'0 0.0
2018-Jul-13 06:21N 48°31' W 122°36'0 0.0
2018-Jul-13 05:57N 48°31' W 122°36'0 0.0
2018-Jul-13 05:27N 48°31' W 122°36'0 0.0
2018-Jul-13 04:57N 48°31' W 122°36'0 0.0
2018-Jul-13 04:27N 48°31' W 122°36'0 0.0
2018-Jul-13 03:57N 48°31' W 122°36'0 0.0
2018-Jul-13 03:27N 48°31' W 122°36'0 0.0
2018-Jul-13 02:57N 48°31' W 122°36'0 0.0
2018-Jul-13 02:21N 48°31' W 122°36'0 0.0
2018-Jul-13 01:57N 48°31' W 122°36'0 0.0
2018-Jul-13 01:27N 48°31' W 122°36'0 0.0
2018-Jul-13 00:57N 48°31' W 122°36'0 0.0
2018-Jul-13 00:27N 48°31' W 122°36'1 2.3
2018-Jul-13 00:00N 48°32' W 122°34'5 9.3
2018-Jul-12 23:30N 48°36' W 122°37'5 9.8
2018-Jul-12 23:01N 48°40' W 122°41'4 7.8
2018-Jul-12 22:30N 48°43' W 122°44'5 0.7
2018-Jul-12 14:09N 48°49' W 122°43'0 0.1
2018-Jul-12 12:06N 48°49' W 122°43'0 0.0
2018-Jul-12 11:54N 48°49' W 122°43'0 0.0
2018-Jul-12 02:07N 48°49' W 122°43'2 0.9
2018-Jul-11 23:54N 48°47' W 122°45'4 9.6
2018-Jul-11 23:30N 48°43' W 122°44'511.0
2018-Jul-11 23:01N 48°39' W 122°39'4 7.4
2018-Jul-11 22:31N 48°40' W 122°33'5 9.8
2018-Jul-11 22:01N 48°45' W 122°30'0 0.0
2018-Jul-11 07:44N 48°45' W 122°30'0 0.0
2018-Jul-11 05:48N 48°45' W 122°30'3 9.9
2018-Jul-11 05:29N 48°42' W 122°32'510.1
2018-Jul-11 05:00N 48°38' W 122°36'5 9.7
2018-Jul-11 04:30N 48°33' W 122°34'2 4.9
2018-Jul-11 04:00N 48°31' W 122°35'0 0.2
2018-Jul-11 03:30N 48°31' W 122°35'1 1.4
2018-Jul-11 03:00N 48°31' W 122°36'0 0.0
2018-Jul-11 02:30N 48°31' W 122°36'0 0.0
2018-Jul-11 02:00N 48°31' W 122°36'1 1.8
2018-Jul-11 01:30N 48°31' W 122°34'4 8.7
2018-Jul-11 01:00N 48°35' W 122°36'510.0
2018-Jul-11 00:31N 48°40' W 122°40'5 9.7
2018-Jul-10 23:58N 48°44' W 122°44'5 1.3
2018-Jul-10 20:22N 48°49' W 122°43'0 0.0
2018-Jul-10 09:21N 48°49' W 122°43'5 9.1
2018-Jul-10 08:50N 48°44' W 122°44'310.6
2018-Jul-10 08:31N 48°41' W 122°42'510.5
2018-Jul-10 08:00N 48°37' W 122°37'5 9.3
2018-Jul-10 07:30N 48°33' W 122°34'2 4.0
2018-Jul-10 07:00N 48°31' W 122°35'0 0.3
2018-Jul-10 06:30N 48°31' W 122°35'1 1.6
2018-Jul-10 06:01N 48°31' W 122°35'2 4.1
2018-Jul-10 05:30N 48°34' W 122°35'3 6.0
2018-Jul-10 05:00N 48°31' W 122°33'0 0.0
2018-Jul-10 04:25N 48°31' W 122°33'0 0.0
2018-Jul-10 03:55N 48°31' W 122°33'0 0.0
2018-Jul-10 03:25N 48°31' W 122°33'0 0.0
2018-Jul-10 02:49N 48°31' W 122°33'0 0.0
2018-Jul-10 02:25N 48°31' W 122°33'0 0.0
2018-Jul-10 01:55N 48°31' W 122°33'0 0.0
2018-Jul-10 01:25N 48°31' W 122°33'1 2.4
2018-Jul-10 01:00N 48°31' W 122°34'0 0.2
2018-Jul-10 00:30N 48°31' W 122°34'1 1.4
2018-Jul-10 00:00N 48°31' W 122°35'2 4.9
2018-Jul-09 23:30N 48°31' W 122°39'4 8.7
2018-Jul-09 23:00N 48°29' W 122°44'5 9.8
2018-Jul-09 22:31N 48°25' W 122°48'713.4
2018-Jul-09 22:00N 48°21' W 122°56'2 0.4
2018-Jul-09 17:00N 48°20' W 122°59'713.4
2018-Jul-09 16:31N 48°24' W 122°50'612.0
2018-Jul-09 16:00N 48°28' W 122°45'5 9.7
2018-Jul-09 15:30N 48°31' W 122°39'3 6.1
2018-Jul-09 15:00N 48°31' W 122°34'0 0.4
2018-Jul-09 14:30N 48°31' W 122°35'0 0.2
2018-Jul-09 14:00N 48°31' W 122°35'0 0.2
2018-Jul-09 13:30N 48°31' W 122°35'0 0.2
2018-Jul-09 13:00N 48°31' W 122°35'0 0.2
2018-Jul-09 12:30N 48°31' W 122°34'1 1.9
2018-Jul-09 12:00N 48°32' W 122°34'5 9.2
2018-Jul-09 11:30N 48°36' W 122°36'510.4
2018-Jul-09 11:00N 48°40' W 122°41'9 5.8
2018-Jul-09 09:23N 48°49' W 122°43'1 3.4
2018-Jul-09 08:58N 48°48' W 122°44'1 0.4
2018-Jul-09 06:21N 48°47' W 122°44'410.3
2018-Jul-09 05:58N 48°43' W 122°44'510.3
2018-Jul-09 05:31N 48°40' W 122°40'4 7.7
2018-Jul-09 05:01N 48°39' W 122°34'5 9.9
2018-Jul-09 04:30N 48°44' W 122°31'  
Track history (hours):
 
Tides and Currents Weather Stations Pressure Air Temp Water Temp Dewpoint Dewpoint Depression Visibility Wind Speed Wind Dir Waves Ship Positions

Garth Foss

Owner: FOSS MARITIME CO, SEATTLE, WA. More information available from US FCC via Universal Licensing System and Coast Guard Vessel Documentation Center.

Last reported at 2018-Jul-18 14:31 UTC. Time now 2018-Jul-18 14:38 UTC.
Position N 48°26' W 122°47'.

Length 47 m; draft 6.2 m.

Type: Towing. MMSI: 366767140.

Date/timePositionNaut miles runAvg speedWind from/ knotsBaromVisibWave heightAir tempDewpointWater temp
2018-Jul-18 14:31N 48°26' W 122°47'10 9.8
2018-Jul-18 13:27N 48°19' W 122°59'10 0.7
2018-Jul-17 22:58N 48°14' W 123°12'8 9.8
2018-Jul-17 22:06N 48°19' W 123°02'110.1
2018-Jul-17 21:59N 48°20' W 123°01'510.9
2018-Jul-17 21:30N 48°22' W 122°54'611.3
2018-Jul-17 20:59N 48°26' W 122°47'612.4
2018-Jul-17 20:31N 48°31' W 122°42'612.4
2018-Jul-17 20:00N 48°36' W 122°38'510.0
2018-Jul-17 19:30N 48°41' W 122°34'5 9.7
2018-Jul-17 19:00N 48°45' W 122°30'0 0.2
2018-Jul-17 18:30N 48°45' W 122°30'1 2.8
2018-Jul-17 17:58N 48°43' W 122°31'0 0.0
2018-Jul-17 17:19N 48°43' W 122°31'0 0.0
2018-Jul-17 16:55N 48°43' W 122°31'0 0.1
2018-Jul-17 14:53N 48°43' W 122°31'1 0.0
2018-Jul-16 07:01N 48°45' W 122°30'0 3.2
2018-Jul-16 07:00N 48°45' W 122°30'5 9.7
2018-Jul-16 06:30N 48°40' W 122°33'5 9.8
2018-Jul-16 06:00N 48°35' W 122°34'4 8.9
2018-Jul-16 05:30N 48°31' W 122°35'0 1.0
2018-Jul-16 05:00N 48°31' W 122°35'2 3.2
2018-Jul-16 04:30N 48°31' W 122°37'1 1.4
2018-Jul-16 03:50N 48°31' W 122°36'0 0.0
2018-Jul-16 03:26N 48°31' W 122°36'0 0.0
2018-Jul-16 02:56N 48°31' W 122°36'0 0.0
2018-Jul-16 02:26N 48°31' W 122°36'0 0.0
2018-Jul-16 01:56N 48°31' W 122°36'0 0.0
2018-Jul-16 01:26N 48°31' W 122°36'0 0.0
2018-Jul-16 00:56N 48°31' W 122°36'0 0.0
2018-Jul-16 00:26N 48°31' W 122°36'0 0.0
2018-Jul-15 23:56N 48°31' W 122°36'0 0.1
2018-Jul-15 23:26N 48°31' W 122°36'0 0.1
2018-Jul-15 22:56N 48°31' W 122°36'0 1.1
2018-Jul-15 22:30N 48°31' W 122°36'1 2.1
2018-Jul-15 21:59N 48°31' W 122°34'1 1.9
2018-Jul-15 21:30N 48°31' W 122°35'3 5.3
2018-Jul-15 21:00N 48°31' W 122°39'3 6.3
2018-Jul-15 20:30N 48°30' W 122°43'4 7.4
2018-Jul-15 20:00N 48°26' W 122°45'4 9.0
2018-Jul-15 19:30N 48°23' W 122°50'610.8
2018-Jul-15 19:00N 48°20' W 122°57'1 0.4
2018-Jul-15 17:15N 48°21' W 122°57'2 6.5
2018-Jul-15 17:00N 48°22' W 122°55'3 7.0
2018-Jul-15 16:30N 48°24' W 122°51'4 8.0
2018-Jul-15 16:00N 48°26' W 122°46'4 7.7
2018-Jul-15 15:28N 48°30' W 122°45'3 7.4
2018-Jul-15 15:00N 48°34' W 122°45'4 7.5
2018-Jul-15 14:30N 48°37' W 122°45'3 6.9
2018-Jul-15 14:00N 48°41' W 122°44'3 6.6
2018-Jul-15 13:30N 48°44' W 122°44'0 0.0
2018-Jul-15 10:06N 48°44' W 122°44'1 9.5
2018-Jul-15 10:00N 48°43' W 122°44'5 9.7
2018-Jul-15 09:30N 48°39' W 122°39'4 8.1
2018-Jul-15 09:01N 48°40' W 122°33'5 6.9
2018-Jul-15 08:17N 48°45' W 122°30'0 0.0
2018-Jul-15 07:59N 48°45' W 122°30'0 0.0
2018-Jul-15 07:29N 48°45' W 122°30'0 0.0
2018-Jul-15 06:59N 48°45' W 122°30'0 0.0
2018-Jul-15 06:17N 48°45' W 122°30'0 0.0
2018-Jul-15 05:59N 48°45' W 122°30'0 0.0
2018-Jul-15 05:29N 48°45' W 122°30'0 0.0
2018-Jul-15 03:59N 48°45' W 122°30'0 0.0
2018-Jul-15 01:41N 48°45' W 122°30'0 0.0
2018-Jul-14 21:05N 48°45' W 122°30'0 0.0
2018-Jul-14 20:47N 48°45' W 122°30'0 0.0
2018-Jul-14 20:17N 48°45' W 122°30'0 0.0
2018-Jul-14 19:59N 48°45' W 122°30'0 0.0
2018-Jul-14 19:29N 48°45' W 122°30'0 0.0
2018-Jul-14 18:59N 48°45' W 122°30'0 0.0
2018-Jul-14 18:29N 48°45' W 122°30'0 0.0
2018-Jul-14 17:59N 48°45' W 122°30'0 0.0
2018-Jul-14 17:29N 48°45' W 122°30'0 0.0
2018-Jul-14 16:59N 48°45' W 122°30'0 0.0
2018-Jul-14 16:29N 48°45' W 122°30'0 0.0
2018-Jul-14 15:59N 48°45' W 122°30'0 0.0
2018-Jul-14 15:29N 48°45' W 122°30'0 0.0
2018-Jul-14 14:35N 48°45' W 122°30'0 0.0
2018-Jul-14 13:05N 48°45' W 122°30'0 0.0
2018-Jul-14 12:41N 48°45' W 122°30'0 0.0
2018-Jul-14 12:17N 48°45' W 122°30'0 0.0
2018-Jul-14 11:47N 48°45' W 122°30'0 0.0
2018-Jul-14 11:17N 48°45' W 122°30'0 0.0
2018-Jul-14 10:47N 48°45' W 122°30'0 0.0
2018-Jul-14 10:29N 48°45' W 122°30'0 0.0
2018-Jul-14 09:47N 48°45' W 122°30'0 0.0
2018-Jul-14 09:29N 48°45' W 122°30'0 0.0
2018-Jul-14 08:59N 48°45' W 122°30'0 0.0
2018-Jul-14 08:29N 48°45' W 122°30'0 0.0
2018-Jul-14 07:59N 48°45' W 122°30'0 0.0
2018-Jul-14 06:29N 48°45' W 122°30'0 0.0
2018-Jul-14 05:41N 48°45' W 122°30'1 2.2
2018-Jul-14 05:24N 48°44' W 122°30'410.0
2018-Jul-14 05:00N 48°40' W 122°33'4 8.8
2018-Jul-14 04:30N 48°36' W 122°34'5 9.4
2018-Jul-14 04:00N 48°32' W 122°34'1 2.2
2018-Jul-14 03:30N 48°31' W 122°35'0 0.2
2018-Jul-14 03:00N 48°31' W 122°35'1 1.9
2018-Jul-14 02:30N 48°31' W 122°34'0 0.9
2018-Jul-14 02:00N 48°31' W 122°35'1 1.2
2018-Jul-14 01:29N 48°31' W 122°36'0 0.0
2018-Jul-14 00:59N 48°31' W 122°36'0 0.0
2018-Jul-14 00:29N 48°31' W 122°36'0 0.0
2018-Jul-13 23:59N 48°31' W 122°36'0 0.0
2018-Jul-13 23:23N 48°31' W 122°36'0 0.0
2018-Jul-13 22:59N 48°31' W 122°36'2 4.5
2018-Jul-13 22:30N 48°31' W 122°39'2 4.0
2018-Jul-13 22:00N 48°32' W 122°36'2 3.2
2018-Jul-13 21:30N 48°31' W 122°34'0 0.1
2018-Jul-13 21:00N 48°31' W 122°34'1 2.2
2018-Jul-13 20:30N 48°31' W 122°36'0 0.1
2018-Jul-13 19:57N 48°31' W 122°36'0 0.0
2018-Jul-13 19:27N 48°31' W 122°36'0 0.0
2018-Jul-13 18:57N 48°31' W 122°36'0 0.0
2018-Jul-13 18:27N 48°31' W 122°36'0 0.0
2018-Jul-13 17:57N 48°31' W 122°36'0 0.0
2018-Jul-13 17:27N 48°31' W 122°36'0 0.0
2018-Jul-13 16:57N 48°31' W 122°36'0 0.0
2018-Jul-13 16:27N 48°31' W 122°36'0 0.0
2018-Jul-13 15:57N 48°31' W 122°36'0 0.0
2018-Jul-13 15:27N 48°31' W 122°36'0 0.0
2018-Jul-13 14:57N 48°31' W 122°36'0 0.0
2018-Jul-13 14:27N 48°31' W 122°36'0 0.0
2018-Jul-13 13:27N 48°31' W 122°36'0 0.0
2018-Jul-13 12:57N 48°31' W 122°36'0 0.1
2018-Jul-13 12:27N 48°31' W 122°36'0 0.1
2018-Jul-13 11:57N 48°31' W 122°36'0 0.0
2018-Jul-13 11:27N 48°31' W 122°36'0 0.0
2018-Jul-13 10:51N 48°31' W 122°36'0 0.0
2018-Jul-13 10:27N 48°31' W 122°36'0 0.0
2018-Jul-13 09:57N 48°31' W 122°36'0 0.1
2018-Jul-13 09:27N 48°31' W 122°36'0 0.1
2018-Jul-13 08:57N 48°31' W 122°36'0 0.0
2018-Jul-13 08:27N 48°31' W 122°36'0 0.0
2018-Jul-13 07:57N 48°31' W 122°36'0 0.0
2018-Jul-13 07:27N 48°31' W 122°36'0 0.0
2018-Jul-13 06:57N 48°31' W 122°36'0 0.0
2018-Jul-13 06:21N 48°31' W 122°36'0 0.0
2018-Jul-13 05:57N 48°31' W 122°36'0 0.0
2018-Jul-13 05:27N 48°31' W 122°36'0 0.0
2018-Jul-13 04:57N 48°31' W 122°36'0 0.0
2018-Jul-13 04:27N 48°31' W 122°36'0 0.0
2018-Jul-13 03:57N 48°31' W 122°36'0 0.0
2018-Jul-13 03:27N 48°31' W 122°36'0 0.0
2018-Jul-13 02:57N 48°31' W 122°36'0 0.0
2018-Jul-13 02:21N 48°31' W 122°36'0 0.0
2018-Jul-13 01:57N 48°31' W 122°36'0 0.0
2018-Jul-13 01:27N 48°31' W 122°36'0 0.0
2018-Jul-13 00:57N 48°31' W 122°36'0 0.0
2018-Jul-13 00:27N 48°31' W 122°36'1 2.3
2018-Jul-13 00:00N 48°32' W 122°34'5 9.3
2018-Jul-12 23:30N 48°36' W 122°37'5 9.8
2018-Jul-12 23:01N 48°40' W 122°41'4 7.8
2018-Jul-12 22:30N 48°43' W 122°44'5 0.7
2018-Jul-12 14:09N 48°49' W 122°43'0 0.1
2018-Jul-12 12:06N 48°49' W 122°43'0 0.0
2018-Jul-12 11:54N 48°49' W 122°43'0 0.0
2018-Jul-12 02:07N 48°49' W 122°43'2 0.9
2018-Jul-11 23:54N 48°47' W 122°45'4 9.6
2018-Jul-11 23:30N 48°43' W 122°44'511.0
2018-Jul-11 23:01N 48°39' W 122°39'4 7.4
2018-Jul-11 22:31N 48°40' W 122°33'5 9.8
2018-Jul-11 22:01N 48°45' W 122°30'0 0.0
2018-Jul-11 07:44N 48°45' W 122°30'0 0.0
2018-Jul-11 05:48N 48°45' W 122°30'3 9.9
2018-Jul-11 05:29N 48°42' W 122°32'510.1
2018-Jul-11 05:00N 48°38' W 122°36'5 9.7
2018-Jul-11 04:30N 48°33' W 122°34'2 4.9
2018-Jul-11 04:00N 48°31' W 122°35'0 0.2
2018-Jul-11 03:30N 48°31' W 122°35'1 1.4
2018-Jul-11 03:00N 48°31' W 122°36'0 0.0
2018-Jul-11 02:30N 48°31' W 122°36'0 0.0
2018-Jul-11 02:00N 48°31' W 122°36'1 1.8
2018-Jul-11 01:30N 48°31' W 122°34'4 8.7
2018-Jul-11 01:00N 48°35' W 122°36'510.0
2018-Jul-11 00:31N 48°40' W 122°40'5 9.7
2018-Jul-10 23:58N 48°44' W 122°44'5 1.3
2018-Jul-10 20:22N 48°49' W 122°43'0 0.0
2018-Jul-10 09:21N 48°49' W 122°43'5 9.1
2018-Jul-10 08:50N 48°44' W 122°44'310.6
2018-Jul-10 08:31N 48°41' W 122°42'510.5
2018-Jul-10 08:00N 48°37' W 122°37'5 9.3
2018-Jul-10 07:30N 48°33' W 122°34'2 4.0
2018-Jul-10 07:00N 48°31' W 122°35'0 0.3
2018-Jul-10 06:30N 48°31' W 122°35'1 1.6
2018-Jul-10 06:01N 48°31' W 122°35'2 4.1
2018-Jul-10 05:30N 48°34' W 122°35'3 6.0
2018-Jul-10 05:00N 48°31' W 122°33'0 0.0
2018-Jul-10 04:25N 48°31' W 122°33'0 0.0
2018-Jul-10 03:55N 48°31' W 122°33'0 0.0
2018-Jul-10 03:25N 48°31' W 122°33'0 0.0
2018-Jul-10 02:49N 48°31' W 122°33'0 0.0
2018-Jul-10 02:25N 48°31' W 122°33'0 0.0
2018-Jul-10 01:55N 48°31' W 122°33'0 0.0
2018-Jul-10 01:25N 48°31' W 122°33'1 2.4
2018-Jul-10 01:00N 48°31' W 122°34'0 0.2
2018-Jul-10 00:30N 48°31' W 122°34'1 1.4
2018-Jul-10 00:00N 48°31' W 122°35'2 4.9
2018-Jul-09 23:30N 48°31' W 122°39'4 8.7
2018-Jul-09 23:00N 48°29' W 122°44'5 9.8
2018-Jul-09 22:31N 48°25' W 122°48'713.4
2018-Jul-09 22:00N 48°21' W 122°56'2 0.4
2018-Jul-09 17:00N 48°20' W 122°59'713.4
2018-Jul-09 16:31N 48°24' W 122°50'612.0
2018-Jul-09 16:00N 48°28' W 122°45'5 9.7
2018-Jul-09 15:30N 48°31' W 122°39'3 6.1
2018-Jul-09 15:00N 48°31' W 122°34'0 0.4
2018-Jul-09 14:30N 48°31' W 122°35'0 0.2
2018-Jul-09 14:00N 48°31' W 122°35'0 0.2
2018-Jul-09 13:30N 48°31' W 122°35'0 0.2
2018-Jul-09 13:00N 48°31' W 122°35'0 0.2
2018-Jul-09 12:30N 48°31' W 122°34'1 1.9
2018-Jul-09 12:00N 48°32' W 122°34'5 9.2
2018-Jul-09 11:30N 48°36' W 122°36'510.4
2018-Jul-09 11:00N 48°40' W 122°41'9 5.8
2018-Jul-09 09:23N 48°49' W 122°43'1 3.4
2018-Jul-09 08:58N 48°48' W 122°44'1 0.4
2018-Jul-09 06:21N 48°47' W 122°44'410.3
2018-Jul-09 05:58N 48°43' W 122°44'510.3
2018-Jul-09 05:31N 48°40' W 122°40'4 7.7
2018-Jul-09 05:01N 48°39' W 122°34'5 9.9
2018-Jul-09 04:30N 48°44' W 122°31'  

Dump ship's entire track history